X  Sluiten METAR luchtvaart weer gegevens         EDDG Twente
Temperatuur
6°C Temperatuur
5°C Dauwpunt
93% Vochtigheid



Wind
2 M/S
5 MPH
7 KM/U
4 KTS



190°
Z
Huidig weer

Cloudy with Patchy Fog Bewolkt , Patchy Mist
Luchtdruk 1029 (hPa) - 30.39 (inHg)
Zicht 1 (mijl) - 1 (km)
Vliegveld
Vliegveld code EDDG

Locatie : Twente
Afstand: 7 (km)

Metar:
METAR EDDG 260920Z AUTO 19004KT 150V220 1000 0900 R25/1600U BCFG OVC001 06/05 Q1029 BECMG 3000 BR

Tijd: 26-11-2022 10:20 CET